createdAt,value
2017-12-01T00:00:18.793Z,0.00
2017-12-01T00:02:46.831Z,0.00
2017-12-01T00:05:15.670Z,0.00
2017-12-01T00:07:44.509Z,0.00
2017-12-01T00:10:13.451Z,0.00
2017-12-01T00:12:41.501Z,0.00
2017-12-01T00:15:09.549Z,0.00
2017-12-01T00:17:38.370Z,0.00
2017-12-01T00:20:06.409Z,0.00
2017-12-01T00:22:36.221Z,0.00
2017-12-01T00:25:06.995Z,0.00
2017-12-01T00:27:36.685Z,0.00
2017-12-01T00:30:05.654Z,0.00
2017-12-01T00:32:34.469Z,0.00
2017-12-01T00:35:02.528Z,0.00
2017-12-01T00:37:32.225Z,0.00
2017-12-01T00:40:02.037Z,0.00
2017-12-01T00:42:30.845Z,0.00
2017-12-01T00:44:58.893Z,0.00
2017-12-01T00:47:27.749Z,0.00
2017-12-01T00:49:55.790Z,0.00
2017-12-01T00:52:25.778Z,0.00
2017-12-01T00:54:55.489Z,-0.10
2017-12-01T00:57:24.292Z,-0.10
2017-12-01T00:59:56.033Z,-0.10
2017-12-01T01:02:24.877Z,-0.10
2017-12-01T01:04:53.937Z,-0.10
2017-12-01T01:07:23.765Z,-0.10
2017-12-01T01:09:51.854Z,-0.10
2017-12-01T01:12:19.893Z,-0.10
2017-12-01T01:14:49.885Z,-0.10
2017-12-01T01:17:17.953Z,-0.10
2017-12-01T01:19:46.768Z,-0.10
2017-12-01T01:22:14.856Z,-0.10
2017-12-01T01:24:43.797Z,-0.10
2017-12-01T01:27:12.613Z,-0.20
2017-12-01T01:29:40.684Z,-0.20
2017-12-01T01:32:09.757Z,-0.20
2017-12-01T01:34:38.569Z,-0.40
2017-12-01T01:37:07.649Z,-0.40
2017-12-01T01:39:36.617Z,-0.50
2017-12-01T01:42:09.853Z,-1.00
2017-12-01T01:44:39.809Z,-1.00
2017-12-01T01:47:07.873Z,-1.20
2017-12-01T01:49:35.941Z,-1.40
2017-12-01T01:52:04.953Z,-1.50
2017-12-01T01:54:35.677Z,-1.90
2017-12-01T01:57:03.753Z,-1.90
2017-12-01T01:59:33.565Z,-2.10
2017-12-01T02:02:01.621Z,-2.10
2017-12-01T02:04:29.693Z,-2.20
2017-12-01T02:06:57.736Z,-2.30
2017-12-01T02:09:25.804Z,-2.30
2017-12-01T02:11:55.876Z,-2.50
2017-12-01T02:14:28.340Z,-2.80
2017-12-01T02:16:57.356Z,-2.80
2017-12-01T02:19:25.396Z,-2.80
2017-12-01T02:21:54.416Z,-2.90
2017-12-01T02:24:22.484Z,-2.90
2017-12-01T02:26:50.533Z,-3.00
2017-12-01T02:29:20.380Z,-3.10
2017-12-01T02:31:50.205Z,-3.20
2017-12-01T02:34:18.269Z,-3.20
2017-12-01T02:36:48.269Z,-3.30
2017-12-01T02:39:16.337Z,-3.30
2017-12-01T02:41:46.145Z,-3.50
2017-12-01T02:44:15.948Z,-3.60
2017-12-01T02:46:44.753Z,-3.60
2017-12-01T02:49:12.819Z,-3.60
2017-12-01T02:51:41.804Z,-3.70
2017-12-01T02:54:12.628Z,-3.40
2017-12-01T02:56:41.456Z,-3.30
2017-12-01T02:59:10.404Z,-3.40
2017-12-01T03:01:39.240Z,-3.40
2017-12-01T03:04:08.300Z,-3.40
2017-12-01T03:06:38.136Z,-3.50
2017-12-01T03:09:07.100Z,-3.50
2017-12-01T03:11:37.819Z,-3.70
2017-12-01T03:14:06.624Z,-3.90
2017-12-01T03:16:35.440Z,-3.90
2017-12-01T03:19:05.444Z,-3.90
2017-12-01T03:21:34.396Z,-3.90
2017-12-01T03:24:04.416Z,-3.80
2017-12-01T03:26:32.456Z,-3.70
2017-12-01T03:29:00.492Z,-3.80
2017-12-01T03:31:29.455Z,-3.70
2017-12-01T03:34:04.764Z,-3.60
2017-12-01T03:36:35.848Z,-3.60
2017-12-01T03:39:06.580Z,-3.70
2017-12-01T03:41:35.420Z,-3.80
2017-12-01T03:44:04.444Z,-3.80
2017-12-01T03:46:35.700Z,-3.80
2017-12-01T03:49:14.875Z,-3.90
2017-12-01T03:51:47.075Z,-4.00
2017-12-01T03:54:17.000Z,-4.10
2017-12-01T03:56:45.988Z,-4.30
2017-12-01T03:59:14.995Z,-4.20
2017-12-01T04:01:43.975Z,-4.10
2017-12-01T04:04:12.075Z,-3.90
2017-12-01T04:06:40.081Z,-3.70
2017-12-01T04:09:14.707Z,-3.90
2017-12-01T04:11:43.743Z,-4.00
2017-12-01T04:14:12.596Z,-4.10
2017-12-01T04:16:43.379Z,-3.90
2017-12-01T04:19:14.087Z,-3.70
2017-12-01T04:21:53.599Z,-3.70
2017-12-01T04:24:21.631Z,-3.80
2017-12-01T04:26:50.575Z,-3.90
2017-12-01T04:29:23.387Z,-3.80
2017-12-01T04:31:53.180Z,-3.90
2017-12-01T04:34:22.187Z,-3.90
2017-12-01T04:36:57.383Z,-4.00
2017-12-01T04:39:26.391Z,-4.00
2017-12-01T04:41:55.391Z,-4.00
2017-12-01T04:44:23.427Z,-4.10
2017-12-01T04:46:53.387Z,-4.20
2017-12-01T04:49:23.395Z,-4.30
2017-12-01T04:51:56.179Z,-4.40
2017-12-01T04:54:24.250Z,-4.30
2017-12-01T04:56:52.279Z,-4.30
2017-12-01T04:59:22.211Z,-4.30
2017-12-01T05:02:02.631Z,-4.40
2017-12-01T05:04:30.667Z,-4.50
2017-12-01T05:07:02.331Z,-4.50
2017-12-01T05:09:43.740Z,-4.40
2017-12-01T05:12:16.882Z,-4.40
2017-12-01T05:14:44.911Z,-4.40
2017-12-01T05:17:12.987Z,-4.50
2017-12-01T05:19:41.035Z,-4.50
2017-12-01T05:22:14.699Z,-4.40
2017-12-01T05:24:42.731Z,-4.40
2017-12-01T05:27:10.767Z,-4.30
2017-12-01T05:29:40.543Z,-4.30
2017-12-01T05:32:09.559Z,-4.30
2017-12-01T05:34:40.386Z,-4.20
2017-12-01T05:37:14.047Z,-4.20
2017-12-01T05:39:47.611Z,-4.10
2017-12-01T05:42:15.697Z,-4.20
2017-12-01T05:44:44.472Z,-4.30
2017-12-01T05:47:13.256Z,-4.50
2017-12-01T05:49:43.255Z,-4.50
2017-12-01T05:52:13.967Z,-4.70
2017-12-01T05:54:41.995Z,-4.70
2017-12-01T05:57:10.031Z,-4.80
2017-12-01T05:59:40.751Z,-4.90
2017-12-01T06:02:09.723Z,-5.00
2017-12-01T06:04:38.722Z,-5.00
2017-12-01T06:07:11.214Z,-5.10
2017-12-01T06:09:41.931Z,-5.00
2017-12-01T06:12:13.583Z,-5.00
2017-12-01T06:14:43.635Z,-5.00
2017-12-01T06:17:11.715Z,-5.00
2017-12-01T06:19:39.701Z,-4.90
2017-12-01T06:22:08.755Z,-4.90
2017-12-01T06:24:41.415Z,-5.10
2017-12-01T06:27:09.456Z,-5.10
2017-12-01T06:29:38.469Z,-5.10
2017-12-01T06:32:07.463Z,-5.20
2017-12-01T06:34:35.511Z,-5.10
2017-12-01T06:37:10.206Z,-5.10
2017-12-01T06:39:42.951Z,-5.10
2017-12-01T06:42:12.963Z,-5.10
2017-12-01T06:44:49.114Z,-5.20
2017-12-01T06:47:17.131Z,-5.30
2017-12-01T06:49:46.074Z,-5.30
2017-12-01T06:52:24.363Z,-5.30
2017-12-01T06:54:53.394Z,-5.30
2017-12-01T06:57:22.379Z,-5.20
2017-12-01T06:59:56.778Z,-5.20
2017-12-01T07:02:28.758Z,-5.10
2017-12-01T07:04:56.790Z,-5.10
2017-12-01T07:07:24.826Z,-5.00
2017-12-01T07:09:54.602Z,-4.90
2017-12-01T07:12:23.626Z,-4.90
2017-12-01T07:14:53.302Z,-4.40
2017-12-01T07:17:22.306Z,-4.40
2017-12-01T07:19:51.298Z,-4.20
2017-12-01T07:22:20.272Z,-4.10
2017-12-01T07:24:49.266Z,-4.00
2017-12-01T07:27:32.354Z,-3.80
2017-12-01T07:30:00.389Z,-3.50
2017-12-01T07:32:40.190Z,-3.10
2017-12-01T07:35:10.179Z,-3.20
2017-12-01T07:37:40.894Z,-2.80
2017-12-01T07:40:09.678Z,-2.70
2017-12-01T07:42:39.454Z,-2.50
2017-12-01T07:45:07.938Z,-2.50
2017-12-01T07:47:41.438Z,-2.40
2017-12-01T07:50:09.482Z,-2.30
2017-12-01T07:52:37.498Z,-2.20
2017-12-01T07:55:06.290Z,-2.00
2017-12-01T07:57:35.114Z,-2.00
2017-12-01T08:00:05.026Z,-2.00
2017-12-01T08:02:34.985Z,-1.70
2017-12-01T08:05:03.970Z,-1.50
2017-12-01T08:07:32.425Z,-1.20
2017-12-01T08:10:00.465Z,-1.00
2017-12-01T08:12:29.414Z,-0.70
2017-12-01T08:14:57.434Z,-0.40
2017-12-01T08:17:29.962Z,0.10
2017-12-01T08:20:01.399Z,0.60
2017-12-01T08:22:41.397Z,0.90
2017-12-01T08:25:21.350Z,1.50
2017-12-01T08:27:51.961Z,2.10
2017-12-01T08:30:20.913Z,2.10
2017-12-01T08:32:50.844Z,2.20
2017-12-01T08:35:19.840Z,2.40
2017-12-01T08:37:49.571Z,3.40
2017-12-01T08:40:19.409Z,4.20
2017-12-01T08:42:47.443Z,4.20
2017-12-01T08:45:15.460Z,4.90
2017-12-01T08:47:53.689Z,6.50
2017-12-01T08:50:22.469Z,7.80
2017-12-01T08:52:50.481Z,7.80
2017-12-01T08:55:19.289Z,8.40
2017-12-01T08:57:47.310Z,8.40
2017-12-01T09:00:15.329Z,8.10
2017-12-01T09:02:43.373Z,8.30
2017-12-01T09:05:11.397Z,8.60
2017-12-01T09:07:39.421Z,9.40
2017-12-01T09:10:08.237Z,10.50
2017-12-01T09:12:37.165Z,10.50
2017-12-01T09:15:05.197Z,11.00
2017-12-01T09:17:33.229Z,11.40
2017-12-01T09:20:02.401Z,12.00
2017-12-01T09:22:30.396Z,12.00
2017-12-01T09:25:00.405Z,11.10
2017-12-01T09:27:28.785Z,10.70
2017-12-01T09:29:56.801Z,10.50
2017-12-01T09:32:24.850Z,11.20
2017-12-01T09:34:55.542Z,13.00
2017-12-01T09:37:24.541Z,13.00
2017-12-01T09:39:52.565Z,13.10
2017-12-01T09:42:20.597Z,13.80
2017-12-01T09:44:51.301Z,16.20
2017-12-01T09:47:21.025Z,16.50
2017-12-01T09:49:54.725Z,16.50
2017-12-01T09:52:23.725Z,16.10
2017-12-01T09:54:51.745Z,15.20
2017-12-01T09:57:20.555Z,16.10
2017-12-01T09:59:48.572Z,16.00
2017-12-01T10:02:18.349Z,18.50
2017-12-01T10:04:46.384Z,18.40
2017-12-01T10:07:14.401Z,18.30
2017-12-01T10:09:42.433Z,16.50
2017-12-01T10:12:14.200Z,14.30
2017-12-01T10:14:42.233Z,12.60
2017-12-01T10:17:11.173Z,11.60
2017-12-01T10:19:45.509Z,9.80
2017-12-01T10:22:13.533Z,9.80
2017-12-01T10:24:42.557Z,9.30
2017-12-01T10:27:13.645Z,8.90
2017-12-01T10:29:41.665Z,8.20
2017-12-01T10:32:09.689Z,8.00
2017-12-01T10:34:41.013Z,8.00
2017-12-01T10:37:11.729Z,10.10
2017-12-01T10:39:39.753Z,10.10
2017-12-01T10:42:08.826Z,10.00
2017-12-01T10:44:37.603Z,8.80
2017-12-01T10:47:16.603Z,7.70
2017-12-01T10:49:45.585Z,7.70
2017-12-01T10:52:13.613Z,6.50
2017-12-01T10:54:41.889Z,6.10
2017-12-01T10:57:09.913Z,6.90
2017-12-01T10:59:37.937Z,7.20
2017-12-01T11:02:13.412Z,7.00
2017-12-01T11:04:41.436Z,6.40
2017-12-01T11:07:14.073Z,6.00
2017-12-01T11:09:42.094Z,5.50
2017-12-01T11:12:14.416Z,5.10
2017-12-01T11:14:42.434Z,4.70
2017-12-01T11:17:10.456Z,6.00
2017-12-01T11:19:40.477Z,7.70
2017-12-01T11:22:08.501Z,9.50
2017-12-01T11:24:39.785Z,10.40
2017-12-01T11:27:08.709Z,11.20
2017-12-01T11:29:36.736Z,11.70
2017-12-01T11:32:04.768Z,12.40
2017-12-01T11:34:35.964Z,11.70
2017-12-01T11:37:04.964Z,11.80
2017-12-01T11:39:35.682Z,12.60
2017-12-01T11:42:04.613Z,12.50
2017-12-01T11:44:34.576Z,12.70
2017-12-01T11:47:05.889Z,13.40
2017-12-01T11:49:34.848Z,13.60
2017-12-01T11:52:03.948Z,14.90
2017-12-01T11:54:32.748Z,14.30
2017-12-01T11:57:03.760Z,14.20
2017-12-01T11:59:32.548Z,13.10
2017-12-01T12:02:02.342Z,14.00
2017-12-01T12:04:32.376Z,14.00
2017-12-01T12:07:02.172Z,14.50
2017-12-01T12:09:30.204Z,14.50
2017-12-01T12:11:59.012Z,11.40
2017-12-01T12:14:27.048Z,11.40
2017-12-01T12:16:55.091Z,12.10
2017-12-01T12:19:23.132Z,12.40
2017-12-01T12:21:55.008Z,14.00
2017-12-01T12:24:26.464Z,13.50
2017-12-01T12:26:55.467Z,11.50
2017-12-01T12:29:24.278Z,10.30
2017-12-01T12:31:52.324Z,10.30
2017-12-01T12:34:23.036Z,9.70
2017-12-01T12:37:05.472Z,9.60
2017-12-01T12:39:38.744Z,6.40
2017-12-01T12:42:06.784Z,6.40
2017-12-01T12:44:34.812Z,5.20
2017-12-01T12:47:02.852Z,4.70
2017-12-01T12:49:31.852Z,5.10
2017-12-01T12:52:00.796Z,5.00
2017-12-01T12:54:28.816Z,4.90
2017-12-01T12:56:57.612Z,4.70
2017-12-01T12:59:26.411Z,5.40
2017-12-01T13:01:54.452Z,5.40
2017-12-01T13:04:26.208Z,6.30
2017-12-01T13:06:55.196Z,6.40
2017-12-01T13:09:23.223Z,5.70
2017-12-01T13:11:51.273Z,5.00
2017-12-01T13:14:19.299Z,4.80
2017-12-01T13:16:48.231Z,4.70
2017-12-01T13:19:16.283Z,4.20
2017-12-01T13:21:45.080Z,3.20
2017-12-01T13:24:13.879Z,2.70
2017-12-01T13:26:53.048Z,2.70
2017-12-01T13:29:21.975Z,2.40
2017-12-01T13:31:50.967Z,1.90
2017-12-01T13:34:20.215Z,1.70
2017-12-01T13:36:54.215Z,1.50
2017-12-01T13:39:22.647Z,1.40
2017-12-01T13:42:02.263Z,1.20
2017-12-01T13:44:30.306Z,1.10
2017-12-01T13:46:58.335Z,0.80
2017-12-01T13:49:26.363Z,0.60
2017-12-01T13:52:03.647Z,0.30
2017-12-01T13:54:35.839Z,0.30
2017-12-01T13:57:03.879Z,0.20
2017-12-01T13:59:33.811Z,0.10
2017-12-01T14:02:02.834Z,-0.10
2017-12-01T14:04:30.875Z,-0.20
2017-12-01T14:07:00.923Z,-0.20
2017-12-01T14:09:33.071Z,-0.20
2017-12-01T14:12:01.111Z,-0.20
2017-12-01T14:14:36.375Z,-0.20
2017-12-01T14:17:11.843Z,-0.20
2017-12-01T14:19:39.883Z,-0.20
2017-12-01T14:22:07.911Z,-0.20
2017-12-01T14:24:36.855Z,-0.20
2017-12-01T14:27:04.891Z,-0.30
2017-12-01T14:29:45.875Z,-0.60
2017-12-01T14:32:13.912Z,-0.60
2017-12-01T14:34:43.915Z,-0.80
2017-12-01T14:37:12.714Z,-1.00
2017-12-01T14:39:40.759Z,-1.00
2017-12-01T14:42:11.991Z,-1.00
2017-12-01T14:44:44.675Z,-1.10
2017-12-01T14:47:16.423Z,-1.30
2017-12-01T14:49:44.474Z,-1.30
2017-12-01T14:52:12.506Z,-1.40
2017-12-01T14:54:40.535Z,-1.50
2017-12-01T14:57:08.594Z,-1.60
2017-12-01T14:59:36.651Z,-1.60
2017-12-01T15:02:06.590Z,-1.70
2017-12-01T15:04:36.623Z,-1.70
2017-12-01T15:07:08.291Z,-1.70
2017-12-01T15:09:44.667Z,-1.60
2017-12-01T15:12:13.615Z,-1.60
2017-12-01T15:14:45.282Z,-1.60
2017-12-01T15:17:13.315Z,-1.50
2017-12-01T15:19:42.262Z,-1.40
2017-12-01T15:22:12.151Z,-1.40
2017-12-01T15:24:40.178Z,-1.30
2017-12-01T15:27:11.835Z,-1.30
2017-12-01T15:29:52.303Z,-1.30
2017-12-01T15:32:22.254Z,-1.40
2017-12-01T15:34:52.158Z,-1.40
2017-12-01T15:37:20.188Z,-1.50
2017-12-01T15:39:55.158Z,-1.60
2017-12-01T15:42:23.182Z,-1.70
2017-12-01T15:44:51.206Z,-1.90
2017-12-01T15:47:20.214Z,-2.00
2017-12-01T15:49:49.010Z,-2.40
2017-12-01T15:52:17.797Z,-2.50
2017-12-01T15:54:48.504Z,-2.60
2017-12-01T15:57:24.046Z,-2.60
2017-12-01T16:00:01.967Z,-2.60
2017-12-01T16:02:30.942Z,-2.60
2017-12-01T16:04:58.970Z,-2.70
2017-12-01T16:07:39.662Z,-2.80
2017-12-01T16:10:09.691Z,-2.90
2017-12-01T16:12:41.665Z,-3.10
2017-12-01T16:15:10.646Z,-3.10
2017-12-01T16:17:45.018Z,-3.00
2017-12-01T16:20:13.055Z,-2.90
2017-12-01T16:22:42.842Z,-2.90
2017-12-01T16:25:12.778Z,-2.90
2017-12-01T16:27:43.466Z,-2.80
2017-12-01T16:30:12.506Z,-2.80
2017-12-01T16:32:51.196Z,-2.90
2017-12-01T16:35:16.099Z,-3.00
2017-12-01T16:37:44.126Z,-3.10
2017-12-01T16:40:13.166Z,-3.20
2017-12-01T16:42:44.318Z,-3.10
2017-12-01T16:45:12.346Z,-3.20
2017-12-01T16:47:49.874Z,-3.40
2017-12-01T16:50:19.878Z,-3.40
2017-12-01T16:52:56.050Z,-3.60
2017-12-01T16:55:26.066Z,-3.60
2017-12-01T16:57:57.823Z,-3.60
2017-12-01T17:00:25.859Z,-3.60
2017-12-01T17:02:58.677Z,-3.50
2017-12-01T17:05:26.690Z,-3.50
2017-12-01T17:07:54.769Z,-3.40
2017-12-01T17:10:22.754Z,-3.40
2017-12-01T17:12:52.690Z,-3.50
2017-12-01T17:15:20.726Z,-3.50
2017-12-01T17:17:51.442Z,-3.30
2017-12-01T17:20:19.458Z,-3.40
2017-12-01T17:22:50.529Z,-3.50
2017-12-01T17:25:19.313Z,-3.90
2017-12-01T17:27:53.899Z,-4.10
2017-12-01T17:30:21.926Z,-4.10
2017-12-01T17:32:49.953Z,-4.10
2017-12-01T17:35:17.989Z,-4.20
2017-12-01T17:37:46.001Z,-4.20
2017-12-01T17:40:14.025Z,-4.10
2017-12-01T17:42:43.065Z,-4.00
2017-12-01T17:45:11.864Z,-3.70
2017-12-01T17:47:41.761Z,-3.70
2017-12-01T17:50:09.795Z,-3.50
2017-12-01T17:52:37.813Z,-3.60
2017-12-01T17:55:10.181Z,-4.00
2017-12-01T17:57:40.181Z,-4.00
2017-12-01T18:00:11.449Z,-4.00
2017-12-01T18:02:40.657Z,-4.00
2017-12-01T18:05:09.449Z,-4.10
2017-12-01T18:07:41.890Z,-4.00
2017-12-01T18:10:10.885Z,-4.00
2017-12-01T18:12:42.449Z,-4.00
2017-12-01T18:15:10.473Z,-4.00
2017-12-01T18:17:38.500Z,-4.00
2017-12-01T18:20:07.305Z,-3.90
2017-12-01T18:22:35.329Z,-3.90
2017-12-01T18:25:03.349Z,-3.90
2017-12-01T18:27:31.429Z,-3.90
2017-12-01T18:30:00.501Z,-3.80
2017-12-01T18:32:29.301Z,-3.90
2017-12-01T18:34:57.337Z,-3.90
2017-12-01T18:37:25.377Z,-3.90
2017-12-01T18:39:53.404Z,-3.90
2017-12-01T18:42:24.121Z,-4.00
2017-12-01T18:44:53.965Z,-4.10
2017-12-01T18:47:21.973Z,-4.10
2017-12-01T18:49:55.384Z,-4.30
2017-12-01T18:52:24.372Z,-4.30
2017-12-01T18:54:52.393Z,-4.30
2017-12-01T18:57:21.361Z,-4.40
2017-12-01T18:59:50.177Z,-4.10
2017-12-01T19:02:18.204Z,-4.20
2017-12-01T19:04:48.017Z,-4.30
2017-12-01T19:07:16.805Z,-4.50
2017-12-01T19:09:46.597Z,-4.60
2017-12-01T19:12:14.637Z,-4.60
2017-12-01T19:14:43.687Z,-4.60
2017-12-01T19:17:12.673Z,-4.50
2017-12-01T19:19:41.492Z,-4.10
2017-12-01T19:22:09.544Z,-4.10
2017-12-01T19:24:38.333Z,-3.90
2017-12-01T19:27:08.057Z,-4.00
2017-12-01T19:29:37.084Z,-4.00
2017-12-01T19:32:06.113Z,-4.10
2017-12-01T19:34:34.164Z,-4.20
2017-12-01T19:37:02.200Z,-4.30
2017-12-01T19:39:30.248Z,-4.40
2017-12-01T19:41:59.212Z,-4.50
2017-12-01T19:44:28.020Z,-4.90
2017-12-01T19:46:56.092Z,-4.90
2017-12-01T19:49:28.556Z,-4.90
2017-12-01T19:51:58.348Z,-4.50
2017-12-01T19:54:27.396Z,-4.50
2017-12-01T19:56:55.456Z,-4.10
2017-12-01T19:59:25.432Z,-3.90
2017-12-01T20:01:53.516Z,-3.90
2017-12-01T20:04:22.332Z,-3.60
2017-12-01T20:06:58.728Z,-3.60
2017-12-01T20:09:26.765Z,-3.30
2017-12-01T20:11:55.708Z,-3.10
2017-12-01T20:14:28.212Z,-2.90
2017-12-01T20:17:00.968Z,-2.70
2017-12-01T20:19:33.372Z,-2.60
2017-12-01T20:22:05.052Z,-2.60
2017-12-01T20:24:33.129Z,-2.50
2017-12-01T20:27:03.204Z,-2.40
2017-12-01T20:29:32.009Z,-2.40
2017-12-01T20:32:00.056Z,-2.40
2017-12-01T20:34:29.076Z,-2.30
2017-12-01T20:36:57.101Z,-2.30
2017-12-01T20:39:25.140Z,-2.30
2017-12-01T20:41:53.244Z,-2.30
2017-12-01T20:44:21.288Z,-2.30
2017-12-01T20:46:49.320Z,-2.30
2017-12-01T20:49:17.369Z,-2.30
2017-12-01T20:51:45.404Z,-2.30
2017-12-01T20:54:15.444Z,-2.30
2017-12-01T20:56:44.423Z,-2.40
2017-12-01T20:59:15.480Z,-2.40
2017-12-01T21:01:43.500Z,-2.50
2017-12-01T21:04:15.820Z,-2.60
2017-12-01T21:06:43.844Z,-2.60
2017-12-01T21:09:11.884Z,-2.70
2017-12-01T21:11:43.196Z,-2.70
2017-12-01T21:14:21.780Z,-2.80
2017-12-01T21:16:49.820Z,-2.90
2017-12-01T21:19:19.791Z,-3.00
2017-12-01T21:21:51.248Z,-3.00
2017-12-01T21:24:20.232Z,-3.10
2017-12-01T21:26:50.160Z,-3.10
2017-12-01T21:29:18.210Z,-3.10
2017-12-01T21:31:47.212Z,-3.10
2017-12-01T21:34:15.244Z,-3.10
2017-12-01T21:36:43.288Z,-3.00
2017-12-01T21:39:11.320Z,-3.00
2017-12-01T21:41:39.803Z,-2.90
2017-12-01T21:44:07.800Z,-2.80
2017-12-01T21:46:36.599Z,-2.80
2017-12-01T21:49:04.661Z,-2.80
2017-12-01T21:51:37.916Z,-2.80
2017-12-01T21:54:05.958Z,-2.80
2017-12-01T21:56:37.464Z,-2.70
2017-12-01T21:59:06.260Z,-2.70
2017-12-01T22:01:35.952Z,-2.70
2017-12-01T22:04:03.992Z,-2.70
2017-12-01T22:06:32.915Z,-2.60
2017-12-01T22:09:01.836Z,-2.60
2017-12-01T22:11:29.876Z,-2.60
2017-12-01T22:13:57.907Z,-2.50
2017-12-01T22:16:25.939Z,-2.60
2017-12-01T22:18:53.979Z,-2.60
2017-12-01T22:21:22.008Z,-2.50
2017-12-01T22:23:50.039Z,-2.50
2017-12-01T22:26:18.847Z,-2.60
2017-12-01T22:28:46.863Z,-2.60
2017-12-01T22:31:18.231Z,-2.50
2017-12-01T22:33:48.963Z,-2.50
2017-12-01T22:36:22.855Z,-2.40
2017-12-01T22:38:50.887Z,-2.40
2017-12-01T22:41:18.928Z,-2.40
2017-12-01T22:43:47.719Z,-2.50
2017-12-01T22:46:16.519Z,-2.50
2017-12-01T22:48:46.483Z,-2.50
2017-12-01T22:51:15.471Z,-2.60
2017-12-01T22:53:43.527Z,-2.80
2017-12-01T22:56:15.303Z,-2.90
2017-12-01T22:58:44.307Z,-3.00
2017-12-01T23:01:13.283Z,-3.00
2017-12-01T23:03:41.319Z,-3.00
2017-12-01T23:06:10.137Z,-3.00
2017-12-01T23:08:39.143Z,-3.10
2017-12-01T23:11:08.139Z,-3.00
2017-12-01T23:13:37.142Z,-3.10
2017-12-01T23:16:06.945Z,-3.00
2017-12-01T23:18:34.978Z,-3.00
2017-12-01T23:21:03.019Z,-3.10
2017-12-01T23:23:31.051Z,-3.10
2017-12-01T23:26:00.051Z,-3.00
2017-12-01T23:28:28.082Z,-3.00
2017-12-01T23:30:56.110Z,-3.00
2017-12-01T23:33:25.886Z,-2.90
2017-12-01T23:35:55.911Z,-2.90
2017-12-01T23:38:23.947Z,-2.90
2017-12-01T23:40:52.971Z,-2.90
2017-12-01T23:43:21.011Z,-2.80
2017-12-01T23:45:49.043Z,-2.80
2017-12-01T23:48:17.082Z,-2.90
2017-12-01T23:50:45.179Z,-2.90
2017-12-01T23:53:13.211Z,-2.80
2017-12-01T23:55:41.243Z,-2.80
2017-12-01T23:58:10.279Z,-2.80
